Time;durP1;ratioP1;P1;durP2;ratioP2;P2;SDS_P1;SDS_P2;PMS_P1;PMS_P2;Temp;Humidity;BMP_temperature;BMP_pressure;BME280_temperature;BME280_humidity;BME280_pressure;Samples;Min_cycle;Max_cycle;Signal;HPM_P1;HPM_P2
2021/07/22 00:00:43;;;;;;;7.18;4.22;;;;;;;24.42;60.80;100327.28;5115758;28;20027;-79
2021/07/22 00:03:14;;;;;;;7.53;4.32;;;;;;;24.49;60.95;100327.03;5115942;28;20492;-75
2021/07/22 00:05:42;;;;;;;9.35;4.50;;;;;;;24.50;60.97;100328.63;5115942;28;20020;-76
2021/07/22 00:08:12;;;;;;;10.00;4.68;;;;;;;24.40;61.41;100330.59;5117463;28;20058;-77
2021/07/22 00:10:44;;;;;;;6.93;4.93;;;;;;;24.36;61.43;100329.91;5116167;28;20031;-77
2021/07/22 00:13:10;;;;;;;6.72;4.43;;;;;;;24.37;61.36;100328.66;5117552;28;20024;-78
2021/07/22 00:15:38;;;;;;;7.63;4.25;;;;;;;24.48;61.36;100328.31;5115277;28;20130;-75
2021/07/22 00:18:07;;;;;;;5.95;4.45;;;;;;;24.41;61.30;100326.50;5116374;28;20370;-76
2021/07/22 00:20:35;;;;;;;4.78;4.32;;;;;;;24.55;60.76;100326.03;5115688;28;20543;-77
2021/07/22 00:23:00;;;;;;;6.93;4.65;;;;;;;24.60;60.61;100326.69;5115882;28;20051;-77
2021/07/22 00:25:31;;;;;;;9.18;4.80;;;;;;;24.58;60.58;100320.69;5115737;28;20351;-78
2021/07/22 00:28:04;;;;;;;7.15;3.95;;;;;;;24.43;60.85;100326.81;5115496;28;20053;-78
2021/07/22 00:30:32;;;;;;;8.55;5.07;;;;;;;24.47;60.25;100313.28;5115679;28;20092;-79
2021/07/22 00:33:01;;;;;;;9.88;4.25;;;;;;;24.51;60.40;100307.50;5116011;28;20032;-76
2021/07/22 00:35:29;;;;;;;6.88;4.20;;;;;;;24.38;60.97;100304.63;5115518;28;20038;-77
2021/07/22 00:38:00;;;;;;;11.52;4.30;;;;;;;24.48;60.86;100309.19;5115430;28;20020;-76
2021/07/22 00:40:25;;;;;;;7.28;4.55;;;;;;;24.50;60.26;100303.84;5115517;28;20054;-77
2021/07/22 00:43:02;;;;;;;6.63;4.05;;;;;;;24.39;59.30;100308.28;5115978;28;20118;-75
2021/07/22 00:45:34;;;;;;;4.72;4.03;;;;;;;24.26;59.44;100302.56;5115640;28;20042;-76
2021/07/22 00:48:01;;;;;;;9.90;4.20;;;;;;;24.25;59.33;100303.81;5116315;28;20051;-76
2021/07/22 00:50:31;;;;;;;4.75;3.85;;;;;;;24.27;59.65;100304.16;5115474;28;20027;-75
2021/07/22 00:53:04;;;;;;;4.93;4.35;;;;;;;24.24;59.67;100293.72;5132270;27;20027;-75
2021/07/22 00:55:35;;;;;;;5.47;4.03;;;;;;;24.18;59.91;100290.63;5115015;28;20088;-76
2021/07/22 00:58:07;;;;;;;4.60;3.42;;;;;;;24.11;60.33;100290.03;5116427;28;20027;-78
2021/07/22 01:00:34;;;;;;;7.68;4.20;;;;;;;24.11;60.04;100293.69;5115172;28;20378;-76
2021/07/22 01:03:02;;;;;;;4.30;3.60;;;;;;;24.10;60.60;100291.31;5114945;28;20031;-78
2021/07/22 01:05:33;;;;;;;9.10;4.22;;;;;;;23.98;60.69;100288.00;5115074;28;20118;-76
2021/07/22 01:08:03;;;;;;;3.95;3.63;;;;;;;24.08;59.89;100291.75;5115029;28;20492;-79
2021/07/22 01:10:32;;;;;;;6.85;3.70;;;;;;;24.02;59.47;100287.88;5113566;28;20035;-77
2021/07/22 01:12:57;;;;;;;6.57;4.13;;;;;;;23.92;59.75;100284.13;5114958;28;20415;-77
2021/07/22 01:15:28;;;;;;;4.07;3.58;;;;;;;23.86;59.87;100297.28;5114972;28;20051;-78
2021/07/22 01:17:54;;;;;;;4.95;3.78;;;;;;;23.82;60.18;100290.13;5114579;28;20035;-76
2021/07/22 01:20:21;;;;;;;5.07;3.78;;;;;;;23.84;59.95;100282.72;5116202;28;20023;-76
2021/07/22 01:22:51;;;;;;;5.20;3.22;;;;;;;23.74;60.17;100283.84;5114968;28;20031;-75
2021/07/22 01:25:18;;;;;;;12.77;4.10;;;;;;;23.77;60.10;100291.47;5114697;28;20382;-75
2021/07/22 01:27:44;;;;;;;7.85;4.55;;;;;;;23.81;60.44;100289.34;5131716;27;20454;-76
2021/07/22 01:30:13;;;;;;;6.80;3.92;;;;;;;23.79;60.37;100291.81;5114439;28;20104;-75
2021/07/22 01:32:44;;;;;;;5.55;3.70;;;;;;;23.82;60.31;100290.13;5115142;28;20028;-74
2021/07/22 01:35:12;;;;;;;4.90;4.00;;;;;;;23.72;60.81;100283.50;5132066;27;20382;-75
2021/07/22 01:37:38;;;;;;;4.60;3.80;;;;;;;23.73;61.05;100282.25;5131401;27;20206;-77
2021/07/22 01:40:07;;;;;;;5.97;4.55;;;;;;;23.73;60.93;100283.06;5114049;28;20031;-75
2021/07/22 01:42:36;;;;;;;6.93;4.05;;;;;;;23.61;61.49;100272.44;5114086;28;20032;-78
2021/07/22 01:45:05;;;;;;;6.82;3.92;;;;;;;23.57;61.63;100282.31;5114576;28;20420;-75
2021/07/22 01:47:33;;;;;;;6.70;3.72;;;;;;;23.58;61.61;100273.31;5113865;28;20024;-78
2021/07/22 01:50:03;;;;;;;4.65;3.80;;;;;;;23.63;61.85;100286.22;5113859;28;20114;-78
2021/07/22 01:52:33;;;;;;;5.60;4.32;;;;;;;23.65;61.42;100278.03;5113802;28;20477;-76
2021/07/22 01:54:59;;;;;;;7.93;4.13;;;;;;;23.60;61.61;100284.25;5131316;27;20561;-78
2021/07/22 01:57:27;;;;;;;5.95;3.70;;;;;;;23.74;61.30;100272.47;5113853;28;20122;-76
2021/07/22 01:59:59;;;;;;;7.80;4.72;;;;;;;23.66;61.54;100276.81;5114220;28;20494;-77
2021/07/22 02:02:27;;;;;;;7.18;4.10;;;;;;;23.67;61.40;100284.84;5113913;28;20036;-77
2021/07/22 02:04:53;;;;;;;7.07;4.20;;;;;;;23.57;61.72;100280.25;5114214;28;20031;-78
2021/07/22 02:07:23;;;;;;;4.57;4.18;;;;;;;23.56;61.59;100292.06;5113705;28;20030;-77
2021/07/22 02:09:48;;;;;;;7.03;4.45;;;;;;;23.62;61.31;100278.91;5113782;28;20023;-76
2021/07/22 02:12:19;;;;;;;6.25;3.80;;;;;;;23.58;61.33;100281.84;5113681;28;20031;-79
2021/07/22 02:14:50;;;;;;;10.35;7.35;;;;;;;23.51;61.45;100288.53;5113170;28;20087;-78
2021/07/22 02:17:21;;;;;;;13.43;12.02;;;;;;;23.43;61.46;100284.28;5113645;28;20177;-77
2021/07/22 02:19:54;;;;;;;15.55;13.32;;;;;;;23.49;61.57;100285.34;5113518;28;20039;-79
2021/07/22 02:22:24;;;;;;;13.50;10.30;;;;;;;23.53;61.59;100286.03;5113844;28;20027;-79
2021/07/22 02:24:55;;;;;;;11.13;10.02;;;;;;;23.40;62.13;100287.25;5114222;28;20351;-75
2021/07/22 02:27:25;;;;;;;9.27;7.70;;;;;;;23.33;62.22;100278.91;5113315;28;20088;-78
2021/07/22 02:29:54;;;;;;;9.25;8.32;;;;;;;23.32;62.39;100280.94;5130996;27;20114;-78
2021/07/22 02:32:24;;;;;;;6.05;5.53;;;;;;;23.53;62.39;100279.56;5113802;28;20032;-77
2021/07/22 02:34:53;;;;;;;5.78;5.18;;;;;;;23.59;62.24;100272.06;5113481;28;20036;-77
2021/07/22 02:37:24;;;;;;;5.03;4.40;;;;;;;23.57;62.30;100271.72;5113141;28;20047;-79
2021/07/22 02:39:52;;;;;;;4.93;4.30;;;;;;;23.58;62.71;100273.31;5113300;28;20100;-77
2021/07/22 02:42:22;;;;;;;6.32;4.18;;;;;;;23.48;63.01;100275.22;5113643;28;20031;-78
2021/07/22 02:44:53;;;;;;;6.38;4.55;;;;;;;23.54;62.93;100269.78;5113345;28;20039;-79
2021/07/22 02:47:22;;;;;;;6.60;5.22;;;;;;;23.51;63.41;100279.22;5112916;28;20031;-76
2021/07/22 02:49:49;;;;;;;5.90;5.22;;;;;;;23.40;63.58;100271.00;5112804;28;20038;-78
2021/07/22 02:52:20;;;;;;;5.25;4.72;;;;;;;23.41;63.77;100277.47;5112840;28;20489;-77
2021/07/22 02:54:50;;;;;;;23.38;21.13;;;;;;;23.40;63.91;100275.88;5112919;28;20028;-75
2021/07/22 02:57:21;;;;;;;14.57;13.27;;;;;;;23.42;63.83;100274.19;5113277;28;20046;-78
2021/07/22 02:59:52;;;;;;;8.45;7.28;;;;;;;23.40;63.83;100276.69;5113116;28;20389;-75
2021/07/22 03:02:20;;;;;;;16.60;14.75;;;;;;;23.37;63.79;100271.88;5112764;28;20482;-78
2021/07/22 03:04:51;;;;;;;11.18;9.82;;;;;;;23.37;63.55;100271.88;5112754;28;20081;-77
2021/07/22 03:07:17;;;;;;;5.95;5.38;;;;;;;23.34;63.38;100275.66;5113320;28;20027;-76
2021/07/22 03:09:45;;;;;;;10.32;9.32;;;;;;;23.32;63.50;100280.94;5113087;28;20031;-78
2021/07/22 03:12:13;;;;;;;10.60;9.35;;;;;;;23.26;63.25;100282.75;5112702;28;20051;-78
2021/07/22 03:14:41;;;;;;;12.48;11.27;;;;;;;23.23;63.44;100266.63;5129610;28;20052;-77
2021/07/22 03:17:09;;;;;;;13.77;12.48;;;;;;;23.14;63.58;100269.31;5113176;28;20020;-75
2021/07/22 03:19:37;;;;;;;15.48;13.98;;;;;;;23.18;63.47;100276.50;5112878;28;20038;-75
2021/07/22 03:22:03;;;;;;;11.65;10.55;;;;;;;23.17;63.62;100274.06;5113361;28;20028;-77
2021/07/22 03:24:34;;;;;;;11.27;10.10;;;;;;;23.16;63.64;100281.00;5112960;28;20414;-78
2021/07/22 03:27:02;;;;;;;12.88;11.50;;;;;;;23.11;63.87;100275.88;5112897;28;20031;-77
2021/07/22 03:29:27;;;;;;;9.85;8.95;;;;;;;23.18;63.75;100287.03;5112667;28;20040;-76
2021/07/22 03:31:55;;;;;;;11.63;8.55;;;;;;;23.11;64.24;100287.22;5113165;28;20036;-78
2021/07/22 03:34:26;;;;;;;8.48;7.63;;;;;;;23.22;64.08;100288.53;5114162;28;20036;-76
2021/07/22 03:36:56;;;;;;;9.32;7.47;;;;;;;23.18;64.27;100287.84;5117176;28;20023;-78
2021/07/22 03:39:24;;;;;;;9.60;7.90;;;;;;;23.14;64.37;100280.66;5116884;28;20386;-77
2021/07/22 03:41:55;;;;;;;8.25;7.50;;;;;;;23.17;64.76;100283.41;5116834;28;20519;-79
2021/07/22 03:44:23;;;;;;;11.40;8.95;;;;;;;23.20;64.33;100290.22;5116823;28;20030;-75
2021/07/22 03:46:54;;;;;;;9.38;8.20;;;;;;;23.18;64.65;100292.72;5116545;28;20035;-79
2021/07/22 03:49:20;;;;;;;14.55;10.57;;;;;;;23.23;64.70;100283.66;5116028;28;20059;-75
2021/07/22 03:51:45;;;;;;;15.65;12.27;;;;;;;23.22;64.65;100282.88;5116781;28;20078;-77
2021/07/22 03:54:13;;;;;;;12.63;11.27;;;;;;;23.22;64.67;100287.72;5116453;28;20439;-80
2021/07/22 03:56:41;;;;;;;10.27;9.20;;;;;;;23.16;65.08;100293.16;5116128;28;20486;-80
2021/07/22 03:59:07;;;;;;;15.93;12.00;;;;;;;23.19;65.33;100291.47;5117395;28;20024;-77
2021/07/22 04:01:34;;;;;;;16.33;14.30;;;;;;;23.21;65.38;100300.31;5116802;28;20122;-76
2021/07/22 04:04:02;;;;;;;17.70;16.00;;;;;;;23.25;65.25;100301.03;5116234;28;20028;-77
2021/07/22 04:06:37;;;;;;;17.95;16.25;;;;;;;23.31;64.81;100299.25;5118019;28;20028;-75
2021/07/22 04:09:03;;;;;;;11.30;9.93;;;;;;;;;;5116339;28;20466;-77
2021/07/22 04:11:34;;;;;;;12.18;8.45;;;;;;;23.39;64.73;100297.81;5115764;28;20035;-77
2021/07/22 04:14:02;;;;;;;8.50;7.70;;;;;;;23.42;65.16;100305.41;5115833;28;20465;-79
2021/07/22 04:16:30;;;;;;;7.72;6.65;;;;;;;23.42;65.04;100313.13;5116266;28;20424;-78
2021/07/22 04:18:58;;;;;;;9.38;6.28;;;;;;;23.52;64.70;100303.53;5115730;28;20047;-76
2021/07/22 04:21:26;;;;;;;7.25;4.88;;;;;;;23.73;63.62;100302.16;5116326;28;20057;-76
2021/07/22 04:23:52;;;;;;;8.35;5.35;;;;;;;24.02;62.81;100305.75;5116133;28;20030;-79
2021/07/22 04:26:22;;;;;;;11.95;5.35;;;;;;;24.29;61.93;100307.34;5115707;28;20453;-76
2021/07/22 04:28:53;;;;;;;6.03;4.35;;;;;;;24.61;60.38;100308.38;5115849;28;20031;-79
2021/07/22 04:31:21;;;;;;;6.03;4.45;;;;;;;24.92;58.97;100312.19;5132783;27;20024;-79
2021/07/22 04:33:49;;;;;;;6.68;4.07;;;;;;;25.25;57.85;100320.47;5116015;28;20125;-75
2021/07/22 04:36:19;;;;;;;5.07;4.10;;;;;;;25.44;56.91;100319.38;5115903;28;20078;-78
2021/07/22 04:38:48;;;;;;;6.45;4.60;;;;;;;25.78;56.03;100324.25;5115655;28;20110;-75
2021/07/22 04:41:19;;;;;;;5.00;3.95;;;;;;;26.03;55.30;100313.94;5116109;28;20425;-79
2021/07/22 04:43:44;;;;;;;6.15;4.18;;;;;;;26.18;54.70;100322.75;5115316;28;20027;-78
2021/07/22 04:46:12;;;;;;;4.50;3.53;;;;;;;26.53;53.85;100321.34;5132615;27;20024;-78
2021/07/22 04:48:40;;;;;;;8.20;3.90;;;;;;;26.83;53.16;100321.75;5116068;28;20339;-76
2021/07/22 04:51:11;;;;;;;4.15;3.85;;;;;;;27.13;51.90;100318.03;5115102;28;20027;-77
2021/07/22 04:53:36;;;;;;;6.07;3.67;;;;;;;27.55;50.80;100320.28;5116655;28;20378;-75
2021/07/22 04:56:08;;;;;;;6.38;3.55;;;;;;;28.01;49.43;100319.44;5115251;28;20028;-76
2021/07/22 04:58:33;;;;;;;5.93;3.80;;;;;;;28.47;48.18;100334.44;5115267;28;20035;-76
2021/07/22 05:01:07;;;;;;;5.03;3.47;;;;;;;28.82;46.11;100326.16;5115417;28;20032;-76
2021/07/22 05:03:38;;;;;;;4.55;3.45;;;;;;;29.12;45.66;100332.81;5115171;28;20028;-78
2021/07/22 05:06:09;;;;;;;7.65;4.07;;;;;;;29.29;44.61;100332.38;5116143;28;20037;-78
2021/07/22 05:08:40;;;;;;;6.82;3.83;;;;;;;29.09;44.71;100330.94;5116706;28;20038;-78
2021/07/22 05:11:09;;;;;;;6.97;4.03;;;;;;;28.90;44.23;100330.22;5114984;28;20077;-77
2021/07/22 05:13:39;;;;;;;5.80;3.63;;;;;;;28.77;45.97;100340.34;5116559;27;20035;-77
2021/07/22 05:16:07;;;;;;;9.07;4.28;;;;;;;28.75;45.43;100334.28;5114873;28;20027;-75
2021/07/22 05:18:34;;;;;;;7.05;4.43;;;;;;;28.55;46.38;100332.00;5114886;28;20085;-79
2021/07/22 05:21:05;;;;;;;7.78;3.92;;;;;;;28.50;46.39;100324.88;5116651;28;20023;-75
2021/07/22 05:23:34;;;;;;;8.07;4.97;;;;;;;28.65;45.78;100336.41;5114935;28;20031;-78
2021/07/22 05:26:07;;;;;;;6.82;4.25;;;;;;;28.88;45.20;100335.66;5114950;28;20355;-76
2021/07/22 05:28:35;;;;;;;7.25;3.80;;;;;;;29.48;44.12;100333.81;5115299;28;20031;-77
2021/07/22 05:31:07;;;;;;;4.88;4.25;;;;;;;30.10;43.02;100337.91;5115189;28;20462;-78
2021/07/22 05:33:35;;;;;;;4.50;4.10;;;;;;;30.50;42.96;100345.91;5114367;28;20026;-77
2021/07/22 05:36:04;;;;;;;7.10;3.80;;;;;;;30.76;41.63;100346.84;5115237;28;20039;-78
2021/07/22 05:38:31;;;;;;;5.25;4.25;;;;;;;31.53;40.66;100351.34;5114506;28;20023;-77
2021/07/22 05:41:04;;;;;;;9.35;3.97;;;;;;;31.76;39.83;100352.38;5115356;28;20031;-77
2021/07/22 05:43:33;;;;;;;5.60;3.78;;;;;;;31.71;39.91;100358.06;5115529;28;20107;-78
2021/07/22 05:45:59;;;;;;;7.65;4.97;;;;;;;31.70;38.85;100354.41;5114645;28;20032;-75
2021/07/22 05:48:27;;;;;;;7.13;4.25;;;;;;;32.36;36.28;100366.34;5114084;28;20118;-76
2021/07/22 05:51:04;;;;;;;6.32;4.45;;;;;;;32.23;35.73;100358.88;5097317;28;20046;-77
2021/07/22 05:53:33;;;;;;;6.13;4.15;;;;;;;31.56;36.70;100366.78;5114376;28;20051;-79
2021/07/22 05:56:02;;;;;;;8.00;4.55;;;;;;;32.01;35.74;100358.66;5115562;28;20055;-76
2021/07/22 05:58:34;;;;;;;6.07;4.03;;;;;;;31.85;35.95;100362.16;5113253;28;20034;-78
2021/07/22 06:01:04;;;;;;;6.55;4.25;;;;;;;31.93;35.70;100369.03;5113661;28;20038;-76
2021/07/22 06:03:30;;;;;;;4.47;4.05;;;;;;;32.26;35.15;100369.38;5115041;28;20114;-77
2021/07/22 06:05:59;;;;;;;4.88;3.72;;;;;;;32.13;35.64;100369.00;5114020;28;20168;-77
2021/07/22 06:08:27;;;;;;;4.70;3.63;;;;;;;32.65;34.70;100371.81;5113499;28;20024;-76
2021/07/22 06:10:52;;;;;;;5.13;4.15;;;;;;;32.73;34.01;100375.81;5113701;28;20032;-76
2021/07/22 06:13:20;;;;;;;7.03;4.05;;;;;;;33.03;33.97;100372.63;5113348;28;20028;-75
2021/07/22 06:15:51;;;;;;;7.07;3.90;;;;;;;33.31;33.66;100382.22;5113374;28;20059;-76
2021/07/22 06:18:19;;;;;;;3.60;3.30;;;;;;;33.98;32.44;100384.59;5113990;28;20404;-78
2021/07/22 06:20:47;;;;;;;8.25;4.40;;;;;;;34.05;32.41;100386.19;5113392;28;20032;-74
2021/07/22 06:23:13;;;;;;;6.93;4.18;;;;;;;34.42;31.32;100388.09;5113557;28;20034;-77
2021/07/22 06:25:43;;;;;;;6.78;4.55;;;;;;;34.10;31.10;100394.09;5113027;28;20338;-79
2021/07/22 06:28:09;;;;;;;5.50;3.97;;;;;;;33.34;32.09;100398.47;5112949;28;20023;-77
2021/07/22 06:30:37;;;;;;;6.70;3.70;;;;;;;33.88;31.76;100400.56;5114270;28;20027;-78
2021/07/22 06:33:02;;;;;;;7.90;4.95;;;;;;;33.55;32.34;100401.22;5112909;28;20035;-75
2021/07/22 06:35:33;;;;;;;8.45;4.15;;;;;;;32.83;33.48;100406.00;5113009;28;20036;-76
2021/07/22 06:38:07;;;;;;;8.10;4.35;;;;;;;33.16;33.12;100409.66;5112943;28;20030;-78
2021/07/22 06:40:35;;;;;;;12.10;4.82;;;;;;;33.87;33.14;100402.63;5129958;27;20055;-78
2021/07/22 06:43:03;;;;;;;7.40;5.50;;;;;;;33.82;32.65;100403.41;5113011;28;20027;-77
2021/07/22 06:45:38;;;;;;;10.77;6.53;;;;;;;33.68;32.65;100404.44;5112899;28;20031;-79
2021/07/22 06:48:09;;;;;;;14.10;5.65;;;;;;;34.14;31.95;100404.06;5114050;28;20024;-79
2021/07/22 06:50:36;;;;;;;9.05;6.20;;;;;;;34.76;30.72;100401.22;5113054;28;20066;-76
2021/07/22 06:53:04;;;;;;;7.72;6.18;;;;;;;34.42;30.78;100397.53;5114033;28;20054;-75
2021/07/22 06:55:34;;;;;;;11.48;7.15;;;;;;;34.19;31.06;100399.59;5112779;28;20031;-75
2021/07/22 06:58:06;;;;;;;12.52;7.53;;;;;;;34.72;31.36;100399.91;5126396;28;20031;-76
2021/07/22 07:00:33;;;;;;;8.25;6.63;;;;;;;35.08;29.89;100403.81;5129870;27;20024;-75
2021/07/22 07:03:09;;;;;;;10.55;7.35;;;;;;;35.05;30.56;100408.59;5112750;28;20031;-78
2021/07/22 07:05:35;;;;;;;11.52;7.93;;;;;;;34.55;31.47;100408.59;5129569;28;20091;-78
2021/07/22 07:08:03;;;;;;;10.18;7.90;;;;;;;34.78;30.82;100404.34;5112860;28;20019;-77
2021/07/22 07:10:34;;;;;;;10.43;7.57;;;;;;;34.76;30.14;100401.22;5133900;27;20023;-77
2021/07/22 07:13:02;;;;;;;10.57;7.43;;;;;;;34.49;30.67;100408.59;5117525;27;20095;-78
2021/07/22 07:15:31;;;;;;;9.77;6.60;;;;;;;34.23;30.77;100399.34;5116427;28;20478;-76
2021/07/22 07:18:01;;;;;;;15.05;6.40;;;;;;;33.98;31.73;100401.13;5117970;27;20027;-76
2021/07/22 07:20:33;;;;;;;6.88;5.47;;;;;;;34.09;30.98;100401.13;5115857;28;20065;-74
2021/07/22 07:23:04;;;;;;;8.70;5.20;;;;;;;34.25;30.58;100405.38;5133739;27;20028;-77
2021/07/22 07:25:33;;;;;;;12.30;5.68;;;;;;;33.89;31.11;100397.16;5117150;28;20028;-74
2021/07/22 07:28:10;;;;;;;10.57;6.28;;;;;;;34.39;30.57;100405.13;5117591;28;20062;-76
2021/07/22 07:30:38;;;;;;;10.35;7.38;;;;;;;34.18;31.14;100392.25;5117137;28;20031;-75
2021/07/22 07:33:07;;;;;;;10.88;7.30;;;;;;;34.04;31.04;100391.19;5116755;28;20477;-75
2021/07/22 07:35:37;;;;;;;8.23;5.97;;;;;;;34.14;30.19;100383.84;5117985;28;20042;-77
2021/07/22 07:38:05;;;;;;;8.93;6.85;;;;;;;33.91;29.43;100387.19;5117631;28;20035;-77
2021/07/22 07:40:35;;;;;;;11.30;6.05;;;;;;;34.02;29.87;100395.88;5116231;28;20028;-75
2021/07/22 07:43:04;;;;;;;12.73;6.18;;;;;;;34.15;29.78;100390.41;5116386;28;20027;-78
2021/07/22 07:45:35;;;;;;;8.93;5.13;;;;;;;34.74;29.55;100392.31;5116799;28;20369;-74
2021/07/22 07:48:03;;;;;;;8.75;5.70;;;;;;;34.83;29.14;100394.91;5117427;28;20024;-76
2021/07/22 07:50:31;;;;;;;5.88;5.00;;;;;;;34.94;28.89;100391.22;5116113;28;20524;-78
2021/07/22 07:52:57;;;;;;;9.98;5.78;;;;;;;34.35;29.30;100386.47;5116049;28;20118;-76
2021/07/22 07:55:23;;;;;;;5.90;5.25;;;;;;;33.36;30.67;100389.31;5115957;28;20526;-75
2021/07/22 07:57:48;;;;;;;7.85;5.53;;;;;;;33.70;31.19;100377.94;5115871;27;20031;-77
2021/07/22 08:00:14;;;;;;;11.02;6.35;;;;;;;33.29;31.60;100384.84;5115828;28;20032;-75
2021/07/22 08:02:42;;;;;;;7.97;6.40;;;;;;;33.49;31.40;100383.09;5115675;28;20030;-76
2021/07/22 08:05:09;;;;;;;7.18;4.97;;;;;;;34.44;29.44;100388.34;5115725;28;20024;-75
2021/07/22 08:07:37;;;;;;;7.18;5.38;;;;;;;35.03;29.03;100387.28;5107957;28;20033;-77
2021/07/22 08:10:08;;;;;;;6.97;4.93;;;;;;;35.63;27.47;100390.50;5116469;28;20035;-75
2021/07/22 08:12:36;;;;;;;8.30;6.25;;;;;;;35.83;27.86;100390.16;5116163;28;20028;-75
2021/07/22 08:15:05;;;;;;;5.82;4.32;;;;;;;35.73;26.74;100391.78;5115168;28;20051;-75
2021/07/22 08:17:33;;;;;;;5.40;4.30;;;;;;;35.85;26.59;100393.31;5115196;28;20122;-74
2021/07/22 08:20:02;;;;;;;6.85;4.57;;;;;;;36.66;25.42;100396.72;5117054;28;20085;-78
2021/07/22 08:22:28;;;;;;;6.63;4.88;;;;;;;36.98;25.36;100394.06;5115513;27;20061;-75
2021/07/22 08:24:58;;;;;;;8.90;6.13;;;;;;;35.47;28.09;100397.94;5115628;28;20039;-75
2021/07/22 08:27:33;;;;;;;9.18;5.50;;;;;;;35.86;27.98;100394.88;5115353;28;20020;-74
2021/07/22 08:29:59;;;;;;;6.18;4.78;;;;;;;35.46;26.11;100407.16;5132559;27;20072;-78
2021/07/22 08:32:28;;;;;;;5.40;4.32;;;;;;;35.76;26.08;100399.41;5132740;27;20083;-75
2021/07/22 08:34:58;;;;;;;5.10;4.10;;;;;;;35.84;26.18;100402.50;5132502;27;20084;-78
2021/07/22 08:37:27;;;;;;;8.23;4.97;;;;;;;35.67;27.15;100396.81;5129262;27;20084;-79
2021/07/22 08:39:56;;;;;;;9.48;4.97;;;;;;;35.54;27.01;100403.19;5132443;27;20046;-76
2021/07/22 08:42:27;;;;;;;7.22;5.13;;;;;;;35.73;26.79;100397.56;5132506;27;20105;-77
2021/07/22 08:44:53;;;;;;;7.53;4.70;;;;;;;35.74;26.15;100380.97;5132551;27;20030;-78
2021/07/22 08:47:20;;;;;;;7.50;4.45;;;;;;;36.53;25.67;100398.69;5116667;28;20019;-78
2021/07/22 08:49:46;;;;;;;8.13;4.63;;;;;;;35.97;26.03;100399.06;5130082;27;20035;-77
2021/07/22 08:52:12;;;;;;;7.43;4.72;;;;;;;36.11;26.39;100400.78;5115479;28;20024;-76
2021/07/22 08:54:39;;;;;;;8.02;4.18;;;;;;;35.67;26.90;100399.72;5131961;27;20028;-78
2021/07/22 08:57:08;;;;;;;5.13;4.47;;;;;;;36.83;25.87;100396.56;5115089;28;20028;-78
2021/07/22 08:59:34;;;;;;;8.07;4.82;;;;;;;36.95;25.56;100395.13;5116374;28;20032;-77
2021/07/22 09:02:02;;;;;;;8.00;4.47;;;;;;;37.31;25.37;100392.13;5132207;27;20058;-78
2021/07/22 09:04:53;;;;;;;7.40;4.70;;;;;;;37.24;25.09;100393.53;5132280;27;20031;-78
2021/07/22 09:07:22;;;;;;;5.00;3.97;;;;;;;37.79;24.31;100395.50;5131710;27;20031;-78
2021/07/22 09:10:06;;;;;;;8.30;4.80;;;;;;;38.82;23.01;100392.06;5132568;27;20027;-78
2021/07/22 09:12:41;;;;;;;4.70;4.10;;;;;;;38.78;24.79;100397.47;5114888;28;20036;-78
2021/07/22 09:15:12;;;;;;;4.78;4.25;;;;;;;38.17;26.24;100393.38;5114273;28;20052;-78
2021/07/22 09:17:43;;;;;;;8.02;4.43;;;;;;;38.14;26.73;100389.47;5114706;28;20113;-79
2021/07/22 09:20:12;;;;;;;7.38;5.15;;;;;;;38.95;25.98;100394.25;5115054;28;20032;-76
2021/07/22 09:22:42;;;;;;;5.82;4.20;;;;;;;39.17;24.91;100387.19;5114685;28;20164;-79
2021/07/22 09:25:10;;;;;;;4.82;4.40;;;;;;;38.63;25.83;100388.44;5131462;27;20036;-79
2021/07/22 09:27:42;;;;;;;13.13;4.07;;;;;;;37.19;27.81;100385.66;5114286;28;20027;-77
2021/07/22 09:30:18;;;;;;;8.88;4.88;;;;;;;37.29;27.46;100383.19;5114762;28;20036;-77
2021/07/22 09:32:50;;;;;;;6.07;4.82;;;;;;;36.47;29.06;100385.03;5113644;28;20054;-79
2021/07/22 09:35:20;;;;;;;7.38;4.68;;;;;;;37.27;28.84;100385.84;5115575;27;20425;-79
2021/07/22 09:37:54;;;;;;;6.80;4.60;;;;;;;36.42;29.83;100379.28;5115382;28;20028;-79
2021/07/22 09:40:26;;;;;;;6.72;4.57;;;;;;;36.48;29.88;100374.22;5131263;27;20106;-74
2021/07/22 09:42:56;;;;;;;4.65;4.20;;;;;;;36.35;30.08;100377.72;5114056;28;20031;-75
2021/07/22 09:45:26;;;;;;;7.85;4.47;;;;;;;36.31;30.39;100377.22;5114562;28;20452;-76
2021/07/22 09:47:57;;;;;;;5.60;4.28;;;;;;;36.58;29.64;100377.56;5114184;28;20051;-75
2021/07/22 09:50:27;;;;;;;5.53;4.18;;;;;;;36.49;30.31;100375.00;5114891;28;20031;-75
2021/07/22 09:53:10;;;;;;;6.63;4.55;;;;;;;36.21;30.81;100361.50;5113833;28;20047;-78
2021/07/22 09:55:44;;;;;;;9.40;5.03;;;;;;;36.20;30.53;100365.72;5115184;28;20086;-78
2021/07/22 09:58:15;;;;;;;5.95;4.45;;;;;;;35.25;32.21;100364.06;5115251;28;20020;-78
2021/07/22 10:00:50;;;;;;;7.03;3.95;;;;;;;36.32;30.19;100364.31;5115048;28;20087;-75
2021/07/22 10:03:19;;;;;;;5.72;4.10;;;;;;;36.93;29.57;100357.22;5114442;28;20032;-76
2021/07/22 10:06:08;;;;;;;7.15;4.25;;;;;;;36.78;30.01;100350.22;5113712;28;20035;-76
2021/07/22 10:08:38;;;;;;;4.68;3.58;;;;;;;36.99;30.52;100354.25;5114803;28;20028;-75
2021/07/22 10:11:07;;;;;;;10.15;4.45;;;;;;;36.46;31.11;100354.47;5113926;28;20097;-76
2021/07/22 10:13:36;;;;;;;6.10;4.22;;;;;;;35.95;31.00;100347.47;5130330;27;20043;-75
2021/07/22 10:16:07;;;;;;;5.35;4.25;;;;;;;35.31;33.04;100353.28;5113419;28;20181;-78
2021/07/22 10:18:36;;;;;;;4.22;3.58;;;;;;;35.26;32.94;100342.50;5114121;28;20370;-75
2021/07/22 10:21:03;;;;;;;8.35;3.90;;;;;;;35.61;32.77;100362.13;5131014;27;20039;-75
2021/07/22 10:23:33;;;;;;;7.45;3.88;;;;;;;35.89;32.04;100353.25;5131051;27;20044;-78
2021/07/22 10:26:02;;;;;;;5.63;4.00;;;;;;;35.97;32.13;100358.53;5113268;28;20038;-77
2021/07/22 10:28:30;;;;;;;4.38;3.97;;;;;;;36.54;31.85;100350.97;5113158;28;20031;-75
2021/07/22 10:31:02;;;;;;;5.47;4.20;;;;;;;36.62;31.70;100351.97;5113304;28;20084;-76
2021/07/22 10:33:30;;;;;;;5.30;3.57;;;;;;;36.47;31.54;100344.44;5114440;27;20412;-77
2021/07/22 10:35:56;;;;;;;5.70;3.80;;;;;;;37.03;30.83;100343.16;5114028;28;20432;-75
2021/07/22 10:38:27;;;;;;;4.63;3.40;;;;;;;37.04;30.97;100349.72;5112940;28;20084;-77
2021/07/22 10:41:03;;;;;;;5.45;3.88;;;;;;;36.14;33.39;100347.59;5113704;28;20047;-79
2021/07/22 10:43:41;;;;;;;11.13;4.30;;;;;;;36.41;31.73;100340.81;5114511;28;20028;-77
2021/07/22 10:46:19;;;;;;;4.88;3.40;;;;;;;36.02;32.12;100328.75;5113012;28;20139;-77
2021/07/22 10:48:49;;;;;;;3.25;2.95;;;;;;;36.69;30.12;100336.88;5114010;28;20030;-77
2021/07/22 10:51:19;;;;;;;5.55;3.60;;;;;;;36.76;29.32;100335.50;5112892;28;20130;-76
2021/07/22 10:53:55;;;;;;;6.55;3.70;;;;;;;36.22;29.58;100334.09;5114030;28;20087;-78
2021/07/22 10:56:23;;;;;;;3.67;3.38;;;;;;;35.91;29.77;100323.81;5112944;28;20028;-75
2021/07/22 10:58:56;;;;;;;6.30;3.63;;;;;;;36.34;30.61;100329.81;5113614;28;20076;-78
2021/07/22 11:01:43;;;;;;;6.72;3.20;;;;;;;36.86;30.43;100334.59;5114442;27;20118;-78
2021/07/22 11:04:18;;;;;;;6.03;3.65;;;;;;;36.68;30.61;100332.41;5112745;28;20028;-77
2021/07/22 11:06:59;;;;;;;6.57;3.80;;;;;;;36.59;29.95;100332.75;5113306;28;20027;-78
2021/07/22 11:09:45;;;;;;;8.63;3.83;;;;;;;36.75;30.03;100319.41;5114355;28;20470;-75
2021/07/22 11:12:44;;;;;;;5.25;4.03;;;;;;;36.30;30.94;100329.31;5112661;28;20114;-76
2021/07/22 11:15:21;;;;;;;3.55;2.95;;;;;;;35.45;31.31;100304.34;5129458;28;20127;-78
2021/07/22 11:17:49;;;;;;;3.53;3.20;;;;;;;36.33;30.62;100315.84;5112452;28;20035;-74
2021/07/22 11:20:21;;;;;;;5.15;3.08;;;;;;;36.35;29.86;100314.00;5129651;28;20020;-77
2021/07/22 11:22:53;;;;;;;5.57;3.40;;;;;;;36.62;29.68;100300.59;5112621;28;20036;-75
2021/07/22 11:25:19;;;;;;;4.10;3.45;;;;;;;36.52;29.56;100313.06;5129815;28;20148;-77
2021/07/22 11:27:52;;;;;;;6.25;3.60;;;;;;;35.85;30.50;100320.94;5114376;28;20040;-78
2021/07/22 11:30:22;;;;;;;7.38;3.63;;;;;;;35.47;29.74;100310.38;5112254;28;20051;-78
2021/07/22 11:32:50;;;;;;;5.05;3.50;;;;;;;35.63;29.72;100301.59;5129667;28;20036;-77
2021/07/22 11:35:21;;;;;;;5.45;4.78;;;;;;;36.00;29.58;100305.31;5129568;28;20038;-77